createdAt,value
2022-11-15T00:01:17.971Z,98506.91
2022-11-15T00:03:46.064Z,98502.88
2022-11-15T00:06:13.062Z,98497.44
2022-11-15T00:08:40.049Z,98491.34
2022-11-15T00:11:06.754Z,98491.44
2022-11-15T00:13:34.053Z,98490.94
2022-11-15T00:16:02.375Z,98486.94
2022-11-15T00:18:32.855Z,98478.91
2022-11-15T00:21:16.201Z,98486.31
2022-11-15T00:23:43.012Z,98481.22
2022-11-15T00:26:13.537Z,98484.84
2022-11-15T00:28:40.695Z,98477.38
2022-11-15T00:31:12.579Z,98478.59
2022-11-15T00:33:39.452Z,98478.09
2022-11-15T00:36:10.110Z,98475.09
2022-11-15T00:38:40.201Z,98478.59
2022-11-15T00:41:09.943Z,98468.84
2022-11-15T00:43:37.217Z,98470.78
2022-11-15T00:46:04.067Z,98473.50
2022-11-15T00:48:31.204Z,98474.88
2022-11-15T00:50:58.424Z,98480.91
2022-11-15T00:53:25.432Z,98484.22
2022-11-15T00:55:52.154Z,98478.31
2022-11-15T00:58:18.998Z,98471.28
2022-11-15T01:00:45.737Z,98479.41
2022-11-15T01:03:12.441Z,98468.88
2022-11-15T01:05:39.320Z,98473.00
2022-11-15T01:08:06.083Z,98468.78
2022-11-15T01:10:32.796Z,98466.38
2022-11-15T01:12:59.515Z,98467.78
2022-11-15T01:15:26.265Z,98463.97
2022-11-15T01:17:53.018Z,98455.03
2022-11-15T01:20:19.820Z,98455.84
2022-11-15T01:22:46.566Z,98462.66
2022-11-15T01:25:13.313Z,98453.75
2022-11-15T01:27:40.119Z,98445.31
2022-11-15T01:30:07.738Z,98449.13
2022-11-15T01:32:34.472Z,98451.03
2022-11-15T01:35:01.159Z,98444.50
2022-11-15T01:37:27.852Z,98447.50
2022-11-15T01:39:54.640Z,98441.09
2022-11-15T01:42:21.365Z,98442.50
2022-11-15T01:44:50.265Z,98445.41
2022-11-15T01:47:38.476Z,98439.19
2022-11-15T01:50:10.799Z,98444.13
2022-11-15T01:52:39.109Z,98437.09
2022-11-15T01:55:05.968Z,98441.91
2022-11-15T01:57:32.944Z,98430.25
2022-11-15T02:00:02.089Z,98426.78
2022-11-15T02:02:29.152Z,98425.16
2022-11-15T02:04:55.979Z,98434.06
2022-11-15T02:07:23.637Z,98435.19
2022-11-15T02:09:51.703Z,98428.66
2022-11-15T02:12:22.232Z,98433.56
2022-11-15T02:14:54.061Z,98421.47
2022-11-15T02:17:32.851Z,98416.03
2022-11-15T02:20:24.604Z,98410.91
2022-11-15T02:23:16.241Z,98413.94
2022-11-15T02:26:05.365Z,98410.72
2022-11-15T02:29:11.317Z,98403.41
2022-11-15T02:31:50.207Z,98394.97
2022-11-15T02:34:29.317Z,98393.50
2022-11-15T02:37:18.204Z,98402.91
2022-11-15T02:39:55.445Z,98402.50
2022-11-15T02:42:45.887Z,98400.09
2022-11-15T02:45:20.100Z,98391.78
2022-11-15T02:47:52.737Z,98386.47
2022-11-15T02:50:23.151Z,98383.25
2022-11-15T02:52:50.620Z,98370.34
2022-11-15T02:55:33.874Z,98373.03
2022-11-15T02:58:06.587Z,98365.91
2022-11-15T03:00:42.368Z,98373.72
2022-11-15T03:03:27.715Z,98370.50
2022-11-15T03:06:02.660Z,98366.03
2022-11-15T03:08:38.268Z,98369.50
2022-11-15T03:11:16.795Z,98372.81
2022-11-15T03:13:58.890Z,98358.28
2022-11-15T03:16:36.052Z,98362.91
2022-11-15T03:19:17.443Z,98364.81
2022-11-15T03:21:45.827Z,98360.50
2022-11-15T03:24:15.419Z,98357.19
2022-11-15T03:26:44.847Z,98355.78
2022-11-15T03:29:18.363Z,98353.09
2022-11-15T03:31:51.175Z,98343.66
2022-11-15T03:34:33.761Z,98347.47
2022-11-15T03:37:00.591Z,98345.38
2022-11-15T03:39:28.497Z,98337.06
2022-11-15T03:42:14.117Z,98331.03
2022-11-15T03:44:50.076Z,98332.84
2022-11-15T03:47:20.128Z,98335.84
2022-11-15T03:49:53.201Z,98325.91
2022-11-15T03:52:21.890Z,98328.94
2022-11-15T03:54:51.068Z,98335.34
2022-11-15T03:57:17.921Z,98322.31
2022-11-15T03:59:44.740Z,98337.13
2022-11-15T04:02:12.766Z,98337.34
2022-11-15T04:04:39.512Z,98332.44
2022-11-15T04:07:06.396Z,98338.34
2022-11-15T04:09:33.176Z,98346.75
2022-11-15T04:11:59.952Z,98338.94
2022-11-15T04:14:26.890Z,98335.63
2022-11-15T04:16:53.636Z,98335.63
2022-11-15T04:19:39.027Z,98324.59
2022-11-15T04:22:24.253Z,98330.00
2022-11-15T04:24:50.921Z,98330.84
2022-11-15T04:27:17.604Z,98326.53
2022-11-15T04:29:44.313Z,98330.00
2022-11-15T04:32:11.024Z,98318.91
2022-11-15T04:34:39.264Z,98326.41
2022-11-15T04:37:15.999Z,98311.78
2022-11-15T04:39:44.380Z,98306.03
2022-11-15T04:42:11.454Z,98312.28
2022-11-15T04:44:38.473Z,98301.72
2022-11-15T04:47:05.502Z,98308.75
2022-11-15T04:49:32.254Z,98305.25
2022-11-15T04:51:59.038Z,98302.53
2022-11-15T04:54:25.779Z,98306.84
2022-11-15T04:56:52.500Z,98297.13
2022-11-15T04:59:19.298Z,98296.31
2022-11-15T05:01:46.055Z,98290.13
2022-11-15T05:04:21.800Z,98293.94
2022-11-15T05:06:50.584Z,98296.31
2022-11-15T05:09:19.123Z,98289.00
2022-11-15T05:11:46.479Z,98297.81
2022-11-15T05:14:14.129Z,98297.91
2022-11-15T05:16:41.013Z,98296.66
2022-11-15T05:19:08.476Z,98296.97
2022-11-15T05:21:36.035Z,98293.25
2022-11-15T05:24:03.202Z,98289.44
2022-11-15T05:26:29.987Z,98293.47
2022-11-15T05:28:58.748Z,98287.44
2022-11-15T05:31:26.852Z,98269.75
2022-11-15T05:33:55.038Z,98281.91
2022-11-15T05:36:39.015Z,98283.00
2022-11-15T05:39:09.016Z,98273.78
2022-11-15T05:41:49.818Z,98276.97
2022-11-15T05:44:20.695Z,98288.31
2022-11-15T05:46:50.211Z,98281.41
2022-11-15T05:49:21.908Z,98278.81
2022-11-15T05:51:49.967Z,98275.63
2022-11-15T05:54:18.340Z,98264.59
2022-11-15T05:56:45.237Z,98258.56
2022-11-15T05:59:12.287Z,98240.09
2022-11-15T06:01:40.582Z,98246.31
2022-11-15T06:04:07.625Z,98261.47
2022-11-15T06:06:34.566Z,98282.75
2022-11-15T06:09:01.511Z,98281.38
2022-11-15T06:11:28.665Z,98275.47
2022-11-15T06:13:55.634Z,98268.63
2022-11-15T06:16:22.319Z,98273.16
2022-11-15T06:18:49.039Z,98276.03
2022-11-15T06:21:15.767Z,98281.16
2022-11-15T06:23:42.567Z,98284.03
2022-11-15T06:26:09.305Z,98290.28
2022-11-15T06:28:36.217Z,98294.56
2022-11-15T06:31:08.073Z,98284.84
2022-11-15T06:33:35.195Z,98286.75
2022-11-15T06:36:04.201Z,98283.44
2022-11-15T06:38:31.108Z,98288.06
2022-11-15T06:41:06.083Z,98294.38
2022-11-15T06:43:33.720Z,98287.97
2022-11-15T06:46:01.927Z,98292.00
2022-11-15T06:48:29.662Z,98286.75
2022-11-15T06:50:59.093Z,98289.94
2022-11-15T06:53:26.745Z,98298.88
2022-11-15T06:55:55.673Z,98292.03
2022-11-15T06:58:22.563Z,98302.88
2022-11-15T07:00:49.591Z,98301.75
2022-11-15T07:03:16.360Z,98302.09
2022-11-15T07:05:43.061Z,98306.69
2022-11-15T07:08:10.577Z,98306.91
2022-11-15T07:10:37.521Z,98309.47
2022-11-15T07:13:04.224Z,98306.47
2022-11-15T07:15:30.968Z,98307.28
2022-11-15T07:18:01.614Z,98303.94
2022-11-15T07:20:28.384Z,98304.44
2022-11-15T07:23:05.997Z,98302.22
2022-11-15T07:25:33.007Z,98293.50
2022-11-15T07:28:00.616Z,98288.94
2022-11-15T07:30:28.412Z,98292.75
2022-11-15T07:33:00.442Z,98281.63
2022-11-15T07:35:29.193Z,98299.78
2022-11-15T07:37:56.900Z,98285.13
2022-11-15T07:40:24.202Z,98288.94
2022-11-15T07:42:53.774Z,98284.56
2022-11-15T07:45:21.605Z,98283.56
2022-11-15T07:47:49.954Z,98284.72
2022-11-15T07:50:17.851Z,98282.00
2022-11-15T07:52:46.413Z,98292.56
2022-11-15T07:55:13.318Z,98290.53
2022-11-15T07:57:39.991Z,98299.13
2022-11-15T08:00:07.783Z,98297.41
2022-11-15T08:02:34.724Z,98295.66
2022-11-15T08:05:01.621Z,98295.06
2022-11-15T08:07:31.271Z,98287.59
2022-11-15T08:09:59.400Z,98290.31
2022-11-15T08:12:27.506Z,98283.47
2022-11-15T08:14:54.240Z,98285.84
2022-11-15T08:17:20.903Z,98280.75
2022-11-15T08:19:47.969Z,98273.25
2022-11-15T08:22:14.916Z,98273.44
2022-11-15T08:24:41.637Z,98272.81
2022-11-15T08:27:15.955Z,98277.78
2022-11-15T08:29:44.253Z,98274.13
2022-11-15T08:32:12.052Z,98273.03
2022-11-15T08:34:39.596Z,98266.97
2022-11-15T08:37:06.618Z,98258.16
2022-11-15T08:39:33.470Z,98258.63
2022-11-15T08:42:00.282Z,98260.84
2022-11-15T08:44:27.168Z,98256.56
2022-11-15T08:46:53.931Z,98252.41
2022-11-15T08:49:20.752Z,98249.06
2022-11-15T08:51:47.618Z,98243.31
2022-11-15T08:54:14.321Z,98253.69
2022-11-15T08:56:41.240Z,98247.34
2022-11-15T08:59:08.129Z,98246.06
2022-11-15T09:01:34.946Z,98247.03
2022-11-15T09:04:01.862Z,98246.41
2022-11-15T09:06:30.958Z,98247.38
2022-11-15T09:08:58.457Z,98247.03
2022-11-15T09:11:25.370Z,98252.03
2022-11-15T09:13:52.567Z,98248.97
2022-11-15T09:16:19.290Z,98243.25
2022-11-15T09:18:46.315Z,98238.28
2022-11-15T09:21:13.825Z,98229.03
2022-11-15T09:23:40.885Z,98224.41
2022-11-15T09:26:07.940Z,98226.78
2022-11-15T09:28:35.526Z,98225.69
2022-11-15T09:31:04.944Z,98228.25
2022-11-15T09:33:32.123Z,98223.63
2022-11-15T09:36:07.759Z,98220.25
2022-11-15T09:38:35.759Z,98220.09
2022-11-15T09:41:34.387Z,98218.00
2022-11-15T09:44:25.270Z,98225.03
2022-11-15T09:47:30.002Z,98214.81
2022-11-15T09:50:00.748Z,98213.06
2022-11-15T09:52:28.863Z,98219.28
2022-11-15T09:54:56.392Z,98213.38
2022-11-15T09:57:43.016Z,98218.81
2022-11-15T10:03:22.255Z,98204.41
2022-11-15T10:05:51.334Z,98202.66
2022-11-15T10:08:36.889Z,98201.22
2022-11-15T10:11:36.029Z,98196.25
2022-11-15T10:14:11.155Z,98191.63
2022-11-15T10:16:56.779Z,98191.31
2022-11-15T10:19:32.588Z,98193.84
2022-11-15T10:22:26.505Z,98196.41
2022-11-15T10:25:17.468Z,98189.19
2022-11-15T10:27:47.990Z,98187.47
2022-11-15T10:30:18.476Z,98188.09
2022-11-15T10:32:47.280Z,98173.53
2022-11-15T10:35:29.625Z,98166.66
2022-11-15T10:38:11.549Z,98170.16
2022-11-15T10:40:40.243Z,98167.78
2022-11-15T10:43:09.890Z,98165.06
2022-11-15T10:45:37.746Z,98170.00
2022-11-15T10:48:23.444Z,98173.84
2022-11-15T10:50:52.687Z,98164.59
2022-11-15T10:53:31.799Z,98157.06
2022-11-15T10:56:07.043Z,98158.66
2022-11-15T10:58:36.392Z,98158.31
2022-11-15T11:01:21.310Z,98152.59
2022-11-15T11:04:04.990Z,98157.69
2022-11-15T11:06:47.315Z,98157.03
2022-11-15T11:09:36.434Z,98158.78
2022-11-15T11:12:05.770Z,98144.84
2022-11-15T11:14:35.141Z,98147.06
2022-11-15T11:17:17.312Z,98142.06
2022-11-15T11:19:59.045Z,98130.94
2022-11-15T11:22:35.611Z,98126.53
2022-11-15T11:25:16.234Z,98120.97
2022-11-15T11:28:00.536Z,98118.78
2022-11-15T11:30:54.916Z,98114.25
2022-11-15T11:33:41.178Z,98105.31
2022-11-15T11:36:40.561Z,98108.81
2022-11-15T11:39:29.863Z,98102.13
2022-11-15T11:42:10.272Z,98105.63
2022-11-15T11:45:16.344Z,98089.75
2022-11-15T11:48:22.052Z,98083.63
2022-11-15T11:50:49.907Z,98092.94
2022-11-15T11:53:30.697Z,98086.38
2022-11-15T11:56:03.302Z,98090.38
2022-11-15T11:58:43.913Z,98082.97
2022-11-15T12:01:35.836Z,98079.47
2022-11-15T12:04:10.930Z,98073.69
2022-11-15T12:06:46.815Z,98071.31
2022-11-15T12:09:38.981Z,98071.16
2022-11-15T12:12:09.561Z,98069.31
2022-11-15T12:14:58.911Z,98070.31
2022-11-15T12:17:35.676Z,98075.63
2022-11-15T12:20:22.635Z,98066.69
2022-11-15T12:22:58.495Z,98061.09
2022-11-15T12:25:42.266Z,98050.56
2022-11-15T12:28:33.461Z,98043.16
2022-11-15T12:31:11.588Z,98039.31
2022-11-15T12:33:42.822Z,98040.91
2022-11-15T12:36:42.451Z,98042.66
2022-11-15T12:39:10.840Z,98041.97
2022-11-15T12:41:41.053Z,98037.78
2022-11-15T12:44:49.257Z,98031.19
2022-11-15T12:47:27.146Z,98028.94
2022-11-15T12:49:54.443Z,98026.81
2022-11-15T12:52:21.353Z,98019.56
2022-11-15T12:54:54.155Z,98020.50
2022-11-15T12:57:20.977Z,98019.00
2022-11-15T12:59:50.704Z,98012.44
2022-11-15T13:02:25.802Z,98002.81
2022-11-15T13:04:54.945Z,98001.91
2022-11-15T13:07:40.163Z,97993.25
2022-11-15T13:10:13.122Z,97992.59
2022-11-15T13:12:46.057Z,97978.06
2022-11-15T13:15:12.699Z,97977.47
2022-11-15T13:17:47.799Z,97964.44
2022-11-15T13:20:17.471Z,97966.59
2022-11-15T13:23:05.617Z,97967.50
2022-11-15T13:25:41.433Z,97959.66
2022-11-15T13:28:17.274Z,97947.16
2022-11-15T13:30:55.464Z,97950.25
2022-11-15T13:33:40.196Z,97943.53
2022-11-15T13:36:17.259Z,97941.72
2022-11-15T13:38:44.384Z,97941.50
2022-11-15T13:41:22.408Z,97936.59
2022-11-15T13:43:51.281Z,97934.91
2022-11-15T13:46:29.305Z,97928.09
2022-11-15T13:49:02.930Z,97918.66
2022-11-15T13:51:37.755Z,97923.22
2022-11-15T13:54:30.163Z,97921.63
2022-11-15T13:56:59.346Z,97923.88
2022-11-15T13:59:29.256Z,97918.44
2022-11-15T14:01:59.823Z,97912.53
2022-11-15T14:04:30.585Z,97913.00
2022-11-15T14:06:59.704Z,97902.22
2022-11-15T14:09:35.770Z,97895.88
2022-11-15T14:12:22.411Z,97895.50
2022-11-15T14:14:49.449Z,97892.31
2022-11-15T14:17:35.625Z,97886.09
2022-11-15T14:20:03.628Z,97882.47
2022-11-15T14:22:31.426Z,97874.16
2022-11-15T14:25:31.371Z,97877.25
2022-11-15T14:28:16.937Z,97874.41
2022-11-15T14:30:48.017Z,97865.00
2022-11-15T14:33:29.433Z,97860.19
2022-11-15T14:35:58.172Z,97867.13
2022-11-15T14:38:26.080Z,97865.91
2022-11-15T14:40:53.027Z,97852.28
2022-11-15T14:43:19.725Z,97850.91
2022-11-15T14:45:46.492Z,97847.69
2022-11-15T14:48:13.292Z,97843.03
2022-11-15T14:50:40.098Z,97851.88
2022-11-15T14:53:07.144Z,97853.38
2022-11-15T14:55:36.994Z,97848.41
2022-11-15T14:58:05.119Z,97841.59
2022-11-15T15:00:35.257Z,97838.44
2022-11-15T15:03:03.796Z,97835.13
2022-11-15T15:05:38.345Z,97831.38
2022-11-15T15:08:05.886Z,97835.47
2022-11-15T15:10:40.595Z,97835.03
2022-11-15T15:13:17.629Z,97833.88
2022-11-15T15:15:44.829Z,97829.81
2022-11-15T15:18:12.233Z,97812.53
2022-11-15T15:20:41.187Z,97814.00
2022-11-15T15:23:19.742Z,97811.16
2022-11-15T15:25:48.734Z,97810.72
2022-11-15T15:28:16.072Z,97800.97
2022-11-15T15:30:43.041Z,97799.38
2022-11-15T15:33:09.746Z,97791.56
2022-11-15T15:35:36.593Z,97790.66
2022-11-15T15:38:04.283Z,97792.56
2022-11-15T15:40:33.262Z,97792.13
2022-11-15T15:43:00.140Z,97781.22
2022-11-15T15:45:28.405Z,97780.78
2022-11-15T15:47:55.740Z,97780.78
2022-11-15T15:50:31.143Z,97774.66
2022-11-15T15:53:00.177Z,97766.84
2022-11-15T15:55:27.864Z,97776.47
2022-11-15T15:57:54.603Z,97764.44
2022-11-15T16:00:23.959Z,97775.78
2022-11-15T16:02:50.918Z,97763.66
2022-11-15T16:05:18.527Z,97753.09
2022-11-15T16:07:47.201Z,97748.78
2022-11-15T16:10:22.101Z,97750.38
2022-11-15T16:12:49.320Z,97746.06
2022-11-15T16:15:16.117Z,97741.44
2022-11-15T16:17:49.037Z,97739.16
2022-11-15T16:20:22.462Z,97734.84
2022-11-15T16:22:49.120Z,97727.81
2022-11-15T16:25:15.835Z,97728.16
2022-11-15T16:27:45.790Z,97723.84
2022-11-15T16:30:18.091Z,97724.97
2022-11-15T16:32:45.016Z,97724.88
2022-11-15T16:35:18.636Z,97717.84
2022-11-15T16:37:47.049Z,97720.91
2022-11-15T16:40:31.770Z,97717.41
2022-11-15T16:42:59.829Z,97712.28
2022-11-15T16:45:29.107Z,97720.56
2022-11-15T16:47:56.691Z,97728.75
2022-11-15T16:50:29.036Z,97731.78
2022-11-15T16:52:58.325Z,97718.53
2022-11-15T16:55:28.264Z,97711.97
2022-11-15T16:57:57.903Z,97711.97
2022-11-15T17:00:25.628Z,97709.25
2022-11-15T17:02:53.648Z,97708.44
2022-11-15T17:05:23.152Z,97701.84
2022-11-15T17:07:54.245Z,97705.72
2022-11-15T17:10:23.067Z,97706.16
2022-11-15T17:12:50.497Z,97703.00
2022-11-15T17:15:17.510Z,97703.81
2022-11-15T17:17:44.459Z,97701.06
2022-11-15T17:20:15.735Z,97695.63
2022-11-15T17:22:42.655Z,97692.91
2022-11-15T17:25:09.838Z,97690.28
2022-11-15T17:27:36.695Z,97684.06
2022-11-15T17:30:04.404Z,97679.41
2022-11-15T17:32:31.124Z,97679.06
2022-11-15T17:34:57.853Z,97684.06
2022-11-15T17:37:24.535Z,97680.53
2022-11-15T17:39:51.266Z,97675.09
2022-11-15T17:42:17.933Z,97673.97
2022-11-15T17:44:44.617Z,97663.75
2022-11-15T17:47:11.328Z,97664.88
2022-11-15T17:49:40.626Z,97666.03
2022-11-15T17:52:07.740Z,97667.97
2022-11-15T17:54:34.729Z,97663.75
2022-11-15T17:57:01.770Z,97665.34
2022-11-15T17:59:28.501Z,97672.03
2022-11-15T18:01:55.198Z,97677.47
2022-11-15T18:04:27.956Z,97672.50
2022-11-15T18:06:55.667Z,97662.38
2022-11-15T18:09:23.021Z,97663.97
2022-11-15T18:11:51.669Z,97661.59
2022-11-15T18:14:19.876Z,97656.84
2022-11-15T18:16:46.942Z,97654.47
2022-11-15T18:19:13.821Z,97658.75
2022-11-15T18:22:04.229Z,97657.97
2022-11-15T18:24:36.556Z,97665.78
2022-11-15T18:27:05.460Z,97661.94
2022-11-15T18:29:34.461Z,97658.44
2022-11-15T18:32:04.893Z,97657.63
2022-11-15T18:34:33.625Z,97654.47
2022-11-15T18:37:02.924Z,97660.13
2022-11-15T18:39:30.112Z,97650.38
2022-11-15T18:41:57.146Z,97651.53
2022-11-15T18:44:23.900Z,97653.78
2022-11-15T18:46:51.018Z,97645.31
2022-11-15T18:49:19.633Z,97637.47
2022-11-15T18:51:46.908Z,97632.84
2022-11-15T18:54:15.501Z,97630.44
2022-11-15T18:56:44.491Z,97630.44
2022-11-15T18:59:11.502Z,97621.94
2022-11-15T19:01:40.475Z,97629.31
2022-11-15T19:04:19.010Z,97623.88
2022-11-15T19:06:47.834Z,97621.13
2022-11-15T19:09:17.362Z,97607.97
2022-11-15T19:11:46.286Z,97609.94
2022-11-15T19:14:15.809Z,97603.69
2022-11-15T19:16:45.070Z,97604.47
2022-11-15T19:19:14.680Z,97600.88
2022-11-15T19:21:42.329Z,97600.06
2022-11-15T19:24:10.467Z,97599.28
2022-11-15T19:26:37.810Z,97599.28
2022-11-15T19:29:06.012Z,97600.06
2022-11-15T19:31:33.619Z,97598.16
2022-11-15T19:34:02.212Z,97586.38
2022-11-15T19:36:59.479Z,97586.69
2022-11-15T19:39:26.533Z,97589.31
2022-11-15T19:41:53.559Z,97576.84
2022-11-15T19:44:20.936Z,97578.31
2022-11-15T19:46:47.830Z,97586.03
2022-11-15T19:49:14.742Z,97575.16
2022-11-15T19:51:42.649Z,97588.75
2022-11-15T19:54:10.356Z,97577.09
2022-11-15T19:56:38.018Z,97585.25
2022-11-15T19:59:05.690Z,97583.66
2022-11-15T20:01:39.141Z,97585.13
2022-11-15T20:04:07.742Z,97580.59
2022-11-15T20:06:37.325Z,97578.31
2022-11-15T20:09:04.181Z,97574.00
2022-11-15T20:11:30.960Z,97577.88
2022-11-15T20:13:59.295Z,97575.50
2022-11-15T20:16:26.494Z,97573.00
2022-11-15T20:18:53.284Z,97579.13
2022-11-15T20:21:21.773Z,97572.91
2022-11-15T20:23:50.625Z,97572.09
2022-11-15T20:26:18.417Z,97565.44
2022-11-15T20:28:45.526Z,97568.16
2022-11-15T20:31:13.042Z,97565.75
2022-11-15T20:33:40.231Z,97562.13
2022-11-15T20:36:11.277Z,97563.63
2022-11-15T20:38:38.221Z,97561.25
2022-11-15T20:41:05.277Z,97547.56
2022-11-15T20:43:32.259Z,97546.75
2022-11-15T20:45:58.974Z,97553.91
2022-11-15T20:48:25.745Z,97543.34
2022-11-15T20:51:02.604Z,97545.53
2022-11-15T20:53:31.612Z,97540.41
2022-11-15T20:56:07.655Z,97540.31
2022-11-15T20:58:36.623Z,97535.56
2022-11-15T21:01:05.700Z,97530.81
2022-11-15T21:03:33.183Z,97524.25
2022-11-15T21:05:59.908Z,97524.25
2022-11-15T21:08:26.921Z,97523.09
2022-11-15T21:11:12.824Z,97530.91
2022-11-15T21:13:39.922Z,97522.31
2022-11-15T21:16:07.250Z,97520.63
2022-11-15T21:18:35.348Z,97515.88
2022-11-15T21:21:04.530Z,97516.84
2022-11-15T21:23:31.397Z,97518.78
2022-11-15T21:25:58.624Z,97506.44
2022-11-15T21:28:25.561Z,97506.78
2022-11-15T21:30:54.096Z,97511.75
2022-11-15T21:33:21.464Z,97501.91
2022-11-15T21:35:48.148Z,97501.44
2022-11-15T21:38:14.892Z,97508.78
2022-11-15T21:40:42.048Z,97506.53
2022-11-15T21:43:08.768Z,97513.78
2022-11-15T21:45:35.594Z,97512.88
2022-11-15T21:48:02.408Z,97508.00
2022-11-15T21:50:29.160Z,97516.94
2022-11-15T21:52:55.883Z,97509.47
2022-11-15T21:55:22.514Z,97511.94
2022-11-15T21:57:49.170Z,97503.56
2022-11-15T22:00:35.593Z,97503.78
2022-11-15T22:03:02.265Z,97493.06
2022-11-15T22:05:29.809Z,97487.94
2022-11-15T22:07:56.509Z,97488.06
2022-11-15T22:10:23.201Z,97486.59
2022-11-15T22:12:49.832Z,97478.91
2022-11-15T22:15:16.812Z,97472.78
2022-11-15T22:17:58.552Z,97465.78
2022-11-15T22:23:13.020Z,97470.75
2022-11-15T22:25:39.783Z,97459.78
2022-11-15T22:28:06.473Z,97467.03
2022-11-15T22:30:33.256Z,97466.56
2022-11-15T22:32:59.934Z,97471.66
2022-11-15T22:35:26.662Z,97466.56
2022-11-15T22:37:53.429Z,97462.50
2022-11-15T22:40:20.122Z,97465.44
2022-11-15T22:42:46.848Z,97464.63
2022-11-15T22:45:13.600Z,97461.13
2022-11-15T22:47:40.323Z,97462.72
2022-11-15T22:50:07.882Z,97465.44
2022-11-15T22:52:35.241Z,97460.69
2022-11-15T22:55:01.975Z,97462.44
2022-11-15T22:57:30.074Z,97470.13
2022-11-15T22:59:57.269Z,97472.75
2022-11-15T23:02:26.548Z,97469.91
2022-11-15T23:04:53.281Z,97468.66
2022-11-15T23:07:20.097Z,97470.91
2022-11-15T23:09:52.243Z,97469.34
2022-11-15T23:12:37.942Z,97464.00
2022-11-15T23:15:05.149Z,97464.00
2022-11-15T23:17:32.377Z,97474.09
2022-11-15T23:20:07.433Z,97468.88
2022-11-15T23:22:48.919Z,97459.81
2022-11-15T23:25:15.773Z,97461.41
2022-11-15T23:27:42.517Z,97457.78
2022-11-15T23:30:28.320Z,97458.44
2022-11-15T23:33:13.957Z,97460.25
2022-11-15T23:35:40.861Z,97452.56
2022-11-15T23:38:07.598Z,97449.84
2022-11-15T23:40:34.493Z,97449.72
2022-11-15T23:43:01.314Z,97444.97
2022-11-15T23:45:29.398Z,97444.63
2022-11-15T23:48:01.043Z,97445.41
2022-11-15T23:50:28.578Z,97440.66
2022-11-15T23:52:55.297Z,97453.19
2022-11-15T23:55:22.039Z,97450.47
2022-11-15T23:57:48.713Z,97445.06
